Time;durP1;ratioP1;P1;durP2;ratioP2;P2;SDS_P1;SDS_P2;PMS_P1;PMS_P2;Temp;Humidity;BMP_temperature;BMP_pressure;BME280_temperature;BME280_humidity;BME280_pressure;Samples;Min_cycle;Max_cycle;Signal;HPM_P1;HPM_P2
2022/07/09 00:00:19;;;;;;;9.35;5.28;;;;;;;;;;4995551;28;20294;-65
2022/07/09 00:02:44;;;;;;;10.43;5.68;;;;;;;;;;5001041;28;20232;-65
2022/07/09 00:05:10;;;;;;;8.38;4.72;;;;;;;;;;5003100;28;20242;-65
2022/07/09 00:07:35;;;;;;;10.40;5.32;;;;;;;;;;5003922;28;20355;-65
2022/07/09 00:10:01;;;;;;;10.80;5.60;;;;;;;;;;5002830;28;20304;-66
2022/07/09 00:12:26;;;;;;;10.35;5.30;;;;;;;;;;5016290;28;21000;-65
2022/07/09 00:14:51;;;;;;;9.88;5.90;;;;;;;;;;5015287;28;20217;-65
2022/07/09 00:17:17;;;;;;;11.25;5.55;;;;;;;;;;5018312;28;20296;-64
2022/07/09 00:19:42;;;;;;;12.95;6.75;;;;;;;;;;5015167;28;20302;-64
2022/07/09 00:22:07;;;;;;;8.68;5.90;;;;;;;;;;5014699;28;20365;-65
2022/07/09 00:24:32;;;;;;;10.52;6.63;;;;;;;;;;5018402;28;20699;-65
2022/07/09 00:26:58;;;;;;;13.85;6.40;;;;;;;;;;5022417;28;20196;-65
2022/07/09 00:29:23;;;;;;;11.40;6.63;;;;;;;;;;5021470;28;20215;-65
2022/07/09 00:31:48;;;;;;;10.38;6.00;;;;;;;;;;5002782;28;20236;-65
2022/07/09 00:34:14;;;;;;;11.30;5.85;;;;;;;;;;5001972;28;20630;-65
2022/07/09 00:36:39;;;;;;;9.52;5.88;;;;;;;;;;5001983;28;20219;-65
2022/07/09 00:39:04;;;;;;;12.95;6.28;;;;;;;;;;5001439;28;20339;-65
2022/07/09 00:41:30;;;;;;;11.05;6.72;;;;;;;;;;4995937;28;20216;-65
2022/07/09 00:43:55;;;;;;;10.75;6.20;;;;;;;;;;5002714;28;20212;-65
2022/07/09 00:46:20;;;;;;;8.32;6.25;;;;;;;;;;4997574;28;20566;-65
2022/07/09 00:48:46;;;;;;;12.57;5.60;;;;;;;;;;5004440;28;20304;-65
2022/07/09 00:51:11;;;;;;;8.55;6.35;;;;;;;;;;5008435;28;20298;-65
2022/07/09 00:53:36;;;;;;;9.40;6.50;;;;;;;;;;5010502;28;20856;-65
2022/07/09 00:56:02;;;;;;;12.98;7.70;;;;;;;;;;5010158;28;20212;-65
2022/07/09 00:58:27;;;;;;;14.40;8.15;;;;;;;;;;5022181;28;20232;-65
2022/07/09 01:00:53;;;;;;;12.88;7.25;;;;;;;;;;5022738;28;20242;-65
2022/07/09 01:03:19;;;;;;;9.60;6.95;;;;;;;;;;5015685;28;20248;-65
2022/07/09 01:05:44;;;;;;;11.32;7.45;;;;;;;;;;4992320;28;20217;-65
2022/07/09 01:08:09;;;;;;;10.00;7.55;;;;;;;;;;4994889;28;20216;-65
2022/07/09 01:10:34;;;;;;;12.07;8.00;;;;;;;;;;5001553;28;20220;-65
2022/07/09 01:13:00;;;;;;;13.70;7.65;;;;;;;;;;5002537;28;20228;-65
2022/07/09 01:15:25;;;;;;;14.02;8.45;;;;;;;;;;5022885;28;20675;-65
2022/07/09 01:17:52;;;;;;;13.70;8.70;;;;;;;;;;5022973;28;20727;-65
2022/07/09 01:20:21;;;;;;;11.57;8.07;;;;;;;;;;5040346;28;20697;-64
2022/07/09 01:22:47;;;;;;;13.00;8.15;;;;;;;;;;5024863;28;20215;-64
2022/07/09 01:25:12;;;;;;;13.13;8.85;;;;;;;;;;5037925;28;20210;-65
2022/07/09 01:27:37;;;;;;;11.05;7.72;;;;;;;;;;5016787;28;20215;-65
2022/07/09 01:30:03;;;;;;;12.93;8.20;;;;;;;;;;5027680;28;20212;-64
2022/07/09 01:32:29;;;;;;;11.10;8.07;;;;;;;;;;5037056;28;20226;-64
2022/07/09 01:34:54;;;;;;;13.80;9.05;;;;;;;;;;5041268;28;20211;-65
2022/07/09 01:37:20;;;;;;;13.05;8.77;;;;;;;;;;5031143;28;20223;-65
2022/07/09 01:39:52;;;;;;;13.63;8.52;;;;;;;;;;5022639;28;20259;-65
2022/07/09 01:42:17;;;;;;;16.30;8.82;;;;;;;;;;5031933;28;20276;-65
2022/07/09 01:44:43;;;;;;;11.23;7.38;;;;;;;;;;5023409;28;20678;-65
2022/07/09 01:47:08;;;;;;;12.70;9.07;;;;;;;;;;5034596;28;20216;-65
2022/07/09 01:49:34;;;;;;;14.93;8.95;;;;;;;;;;5014807;28;20199;-65
2022/07/09 01:51:59;;;;;;;11.13;8.30;;;;;;;;;;5027784;28;20214;-65
2022/07/09 01:54:24;;;;;;;11.77;8.10;;;;;;;;;;5027021;28;20255;-65
2022/07/09 01:56:50;;;;;;;14.25;9.00;;;;;;;;;;5021922;28;20691;-65
2022/07/09 01:59:15;;;;;;;13.27;9.05;;;;;;;;;;5022737;28;20218;-64
2022/07/09 02:01:40;;;;;;;13.80;8.65;;;;;;;;;;5039674;28;20641;-65
2022/07/09 02:04:06;;;;;;;12.70;8.60;;;;;;;;;;5040153;28;20231;-65
2022/07/09 02:06:31;;;;;;;11.90;8.20;;;;;;;;;;5032018;28;20256;-65
2022/07/09 02:08:56;;;;;;;13.32;8.55;;;;;;;;;;5036653;28;20223;-65
2022/07/09 02:11:22;;;;;;;12.88;8.70;;;;;;;;;;5015415;28;20216;-65
2022/07/09 02:13:47;;;;;;;14.57;8.88;;;;;;;;;;5014420;28;20223;-65
2022/07/09 02:16:12;;;;;;;10.80;8.20;;;;;;;;;;5013572;28;20231;-65
2022/07/09 02:18:38;;;;;;;12.88;8.98;;;;;;;;;;5023183;28;20215;-65
2022/07/09 02:21:05;;;;;;;12.30;8.52;;;;;;;;;;5040989;28;20223;-64
2022/07/09 02:23:30;;;;;;;11.07;8.35;;;;;;;;;;5040699;28;20290;-64
2022/07/09 02:25:55;;;;;;;14.32;8.73;;;;;;;;;;5041046;28;20309;-64
2022/07/09 02:28:20;;;;;;;14.48;9.75;;;;;;;;;;5040725;28;20222;-65
2022/07/09 02:30:46;;;;;;;12.00;8.60;;;;;;;;;;5028370;28;20220;-64
2022/07/09 02:33:11;;;;;;;11.85;9.10;;;;;;;;;;5016945;28;20232;-65
2022/07/09 02:35:36;;;;;;;12.75;9.20;;;;;;;;;;5014609;28;20234;-64
2022/07/09 02:38:02;;;;;;;14.93;9.50;;;;;;;;;;5012953;28;20278;-65
2022/07/09 02:40:27;;;;;;;16.13;9.18;;;;;;;;;;5017227;28;20219;-65
2022/07/09 02:42:52;;;;;;;14.07;9.13;;;;;;;;;;5021543;28;20219;-65
2022/07/09 02:45:18;;;;;;;11.88;8.85;;;;;;;;;;5020162;28;20567;-65
2022/07/09 02:47:43;;;;;;;11.65;8.93;;;;;;;;;;5021473;28;20246;-65
2022/07/09 02:50:09;;;;;;;11.18;9.07;;;;;;;;;;5020605;28;20694;-65
2022/07/09 02:52:34;;;;;;;11.93;8.13;;;;;;;;;;5021018;28;20226;-66
2022/07/09 02:54:59;;;;;;;11.75;8.82;;;;;;;;;;5019512;28;20215;-66
2022/07/09 02:57:24;;;;;;;13.95;9.00;;;;;;;;;;5013805;28;20231;-65
2022/07/09 02:59:50;;;;;;;12.88;9.18;;;;;;;;;;5013679;28;20237;-65
2022/07/09 03:02:15;;;;;;;13.18;9.80;;;;;;;;;;5023552;28;20217;-65
2022/07/09 03:04:41;;;;;;;12.35;9.40;;;;;;;;;;5008037;28;20216;-65
2022/07/09 03:07:06;;;;;;;11.68;9.20;;;;;;;;;;5017021;28;20707;-65
2022/07/09 03:09:32;;;;;;;12.70;9.88;;;;;;;;;;5024835;28;20215;-65
2022/07/09 03:11:57;;;;;;;15.27;10.23;;;;;;;;;;5014098;28;20204;-65
2022/07/09 03:14:22;;;;;;;13.18;9.65;;;;;;;;;;5014148;28;20551;-65
2022/07/09 03:16:47;;;;;;;12.75;9.00;;;;;;;;;;5006582;28;20726;-65
2022/07/09 03:19:13;;;;;;;15.48;10.82;;;;;;;;;;4997332;28;20332;-65
2022/07/09 03:21:39;;;;;;;13.93;10.52;;;;;;;;;;4995287;28;20295;-65
2022/07/09 03:24:04;;;;;;;14.93;10.23;;;;;;;;;;5010620;28;20292;-65
2022/07/09 03:26:29;;;;;;;15.93;10.73;;;;;;;;;;5022109;28;20208;-65
2022/07/09 03:28:55;;;;;;;14.80;10.38;;;;;;;;;;5023809;28;20243;-65
2022/07/09 03:31:20;;;;;;;16.52;11.35;;;;;;;;;;5006686;28;20239;-65
2022/07/09 03:33:45;;;;;;;15.63;10.48;;;;;;;;;;5004129;28;20585;-65
2022/07/09 03:36:11;;;;;;;14.77;9.77;;;;;;;;;;5003715;28;20216;-65
2022/07/09 03:38:36;;;;;;;14.40;10.02;;;;;;;;;;5023978;28;20550;-65
2022/07/09 03:41:01;;;;;;;14.25;10.10;;;;;;;;;;5019253;28;20296;-66
2022/07/09 03:43:27;;;;;;;14.43;10.15;;;;;;;;;;5016397;28;20237;-65
2022/07/09 03:45:52;;;;;;;14.15;10.25;;;;;;;;;;5016494;28;20254;-65
2022/07/09 03:48:17;;;;;;;14.10;9.70;;;;;;;;;;5004564;28;20251;-65
2022/07/09 03:50:43;;;;;;;12.57;8.75;;;;;;;;;;5003868;28;21042;-65
2022/07/09 03:53:08;;;;;;;12.90;9.60;;;;;;;;;;5011931;28;20242;-65
2022/07/09 03:55:33;;;;;;;14.40;9.50;;;;;;;;;;5023558;28;20615;-66
2022/07/09 03:57:59;;;;;;;15.95;10.10;;;;;;;;;;5023291;28;20641;-65
2022/07/09 04:00:25;;;;;;;14.25;9.90;;;;;;;;;;5022735;28;20247;-65
2022/07/09 04:02:50;;;;;;;14.05;9.85;;;;;;;;;;5026513;28;20235;-65
2022/07/09 04:05:16;;;;;;;12.55;9.40;;;;;;;;;;5035128;28;20203;-65
2022/07/09 04:07:41;;;;;;;14.27;9.65;;;;;;;;;;5035189;28;20231;-65
2022/07/09 04:10:07;;;;;;;13.80;9.27;;;;;;;;;;5035726;28;20215;-65
2022/07/09 04:12:32;;;;;;;11.90;9.35;;;;;;;;;;5039795;28;20226;-65
2022/07/09 04:14:58;;;;;;;14.43;9.35;;;;;;;;;;5037277;28;20227;-63
2022/07/09 04:17:23;;;;;;;12.32;9.35;;;;;;;;;;5035097;28;20215;-63
2022/07/09 04:19:48;;;;;;;15.13;9.75;;;;;;;;;;5042166;28;20207;-63
2022/07/09 04:22:14;;;;;;;15.07;9.25;;;;;;;;;;5033288;28;20270;-63
2022/07/09 04:24:39;;;;;;;13.02;9.55;;;;;;;;;;5023475;28;20265;-63
2022/07/09 04:27:04;;;;;;;15.15;9.10;;;;;;;;;;5017429;28;20207;-63
2022/07/09 04:29:30;;;;;;;13.23;9.88;;;;;;;;;;5014961;28;20634;-63
2022/07/09 04:31:55;;;;;;;13.27;9.40;;;;;;;;;;5015390;28;20203;-64
2022/07/09 04:34:20;;;;;;;12.77;9.15;;;;;;;;;;5020214;28;20905;-65
2022/07/09 04:36:46;;;;;;;14.25;9.60;;;;;;;;;;5022790;28;20745;-66
2022/07/09 04:39:11;;;;;;;14.48;10.18;;;;;;;;;;5041331;28;20211;-66
2022/07/09 04:41:37;;;;;;;15.82;10.25;;;;;;;;;;5042599;28;20214;-66
2022/07/09 04:44:02;;;;;;;14.63;10.93;;;;;;;;;;5041572;28;20210;-65
2022/07/09 04:46:30;;;;;;;15.90;10.27;;;;;;;;;;5041950;28;20215;-65
2022/07/09 04:48:55;;;;;;;15.70;11.02;;;;;;;;;;5019954;28;20807;-65
2022/07/09 04:51:21;;;;;;;17.13;10.70;;;;;;;;;;5033505;28;20219;-65
2022/07/09 04:53:46;;;;;;;17.30;11.05;;;;;;;;;;5034560;28;20281;-65
2022/07/09 04:56:11;;;;;;;15.73;11.38;;;;;;;;;;5037465;28;20211;-65
2022/07/09 04:58:37;;;;;;;14.52;11.30;;;;;;;;;;5041929;28;20215;-65
2022/07/09 05:01:03;;;;;;;16.83;10.80;;;;;;;;;;5041300;28;20241;-65
2022/07/09 05:03:28;;;;;;;15.50;11.50;;;;;;;;;;5041545;28;20226;-65
2022/07/09 05:05:54;;;;;;;15.40;11.32;;;;;;;;;;5028362;28;20731;-63
2022/07/09 05:08:19;;;;;;;14.88;10.38;;;;;;;;;;5023129;28;20215;-62
2022/07/09 05:10:44;;;;;;;21.58;13.75;;;;;;;;;;5021174;28;20212;-63
2022/07/09 05:13:10;;;;;;;20.52;15.73;;;;;;;;;;5033542;28;20325;-63
2022/07/09 05:15:35;;;;;;;20.63;15.52;;;;;;;;;;5020066;28;20215;-63
2022/07/09 05:18:00;;;;;;;24.63;19.23;;;;;;;;;;5014685;28;20219;-63
2022/07/09 05:20:26;;;;;;;25.60;19.70;;;;;;;;;;5014574;28;20212;-65
2022/07/09 05:22:51;;;;;;;25.17;20.85;;;;;;;;;;5021845;28;20286;-65
2022/07/09 05:25:16;;;;;;;25.70;20.30;;;;;;;;;;5037293;28;20867;-65
2022/07/09 05:27:42;;;;;;;26.42;20.23;;;;;;;;;;5042432;28;20732;-64
2022/07/09 05:30:09;;;;;;;26.17;20.02;;;;;;;;;;5034045;28;20211;-65
2022/07/09 05:32:34;;;;;;;24.60;18.63;;;;;;;;;;5041400;28;20226;-65
2022/07/09 05:34:59;;;;;;;24.80;18.02;;;;;;;;;;5034904;28;20203;-65
2022/07/09 05:37:25;;;;;;;25.42;18.38;;;;;;;;;;5009348;28;20611;-65
2022/07/09 05:39:50;;;;;;;24.05;17.23;;;;;;;;;;5013503;28;20235;-65
2022/07/09 05:42:15;;;;;;;25.45;17.55;;;;;;;;;;5019539;28;20214;-64
2022/07/09 05:44:41;;;;;;;21.27;16.73;;;;;;;;;;5021684;28;20204;-65
2022/07/09 05:47:06;;;;;;;22.58;17.15;;;;;;;;;;5034411;28;20326;-65
2022/07/09 05:49:31;;;;;;;21.88;15.52;;;;;;;;;;5021178;28;20295;-65
2022/07/09 05:51:57;;;;;;;23.23;17.00;;;;;;;;;;5021363;28;20319;-65
2022/07/09 05:54:22;;;;;;;19.80;15.82;;;;;;;;;;5020725;28;20240;-64
2022/07/09 05:56:47;;;;;;;22.40;15.70;;;;;;;;;;5030444;28;20214;-61
2022/07/09 05:59:12;;;;;;;21.70;16.90;;;;;;;;;;5032500;28;21418;-62
2022/07/09 06:01:39;;;;;;;19.02;14.20;;;;;;;;;;5032274;28;20207;-61
2022/07/09 06:04:07;;;;;;;20.63;13.88;;;;;;;;;;5035467;28;20257;-62
2022/07/09 06:06:32;;;;;;;17.70;11.93;;;;;;;;;;5030957;28;20220;-61
2022/07/09 06:08:57;;;;;;;16.80;12.27;;;;;;;;;;5022333;28;20222;-61
2022/07/09 06:11:23;;;;;;;19.48;12.15;;;;;;;;;;5021912;28;20208;-60
2022/07/09 06:13:49;;;;;;;21.48;11.80;;;;;;;;;;5005692;28;20231;-61
2022/07/09 06:16:14;;;;;;;17.30;11.50;;;;;;;;;;5021781;28;20203;-61
2022/07/09 06:18:40;;;;;;;17.42;10.63;;;;;;;;;;5021052;28;20214;-61
2022/07/09 06:21:05;;;;;;;16.98;10.57;;;;;;;;;;5015097;28;20216;-61
2022/07/09 06:23:30;;;;;;;15.40;10.07;;;;;;;;;;5013396;28;20417;-61
2022/07/09 06:25:56;;;;;;;17.23;9.45;;;;;;;;;;5014909;28;20450;-61
2022/07/09 06:28:21;;;;;;;14.45;8.88;;;;;;;;;;5005476;28;20729;-61
2022/07/09 06:30:46;;;;;;;11.23;7.80;;;;;;;;;;5028133;28;20852;-61
2022/07/09 06:33:11;;;;;;;11.98;7.57;;;;;;;;;;5020770;28;20232;-61
2022/07/09 06:35:37;;;;;;;10.68;7.82;;;;;;;;;;5022843;28;20853;-61
2022/07/09 06:38:02;;;;;;;12.68;7.50;;;;;;;;;;5021080;28;20229;-61
2022/07/09 06:40:27;;;;;;;15.00;7.80;;;;;;;;;;5043978;28;20207;-64
2022/07/09 06:42:53;;;;;;;10.75;6.45;;;;;;;;;;5030573;28;20299;-64
2022/07/09 06:45:18;;;;;;;9.00;6.05;;;;;;;;;;5030537;28;20212;-64
2022/07/09 06:47:43;;;;;;;10.88;5.50;;;;;;;;;;5025085;28;20346;-63
2022/07/09 06:50:09;;;;;;;11.70;5.00;;;;;;;;;;5020543;28;20603;-64
2022/07/09 06:52:34;;;;;;;7.63;4.25;;;;;;;;;;5039736;28;20214;-63
2022/07/09 06:54:59;;;;;;;6.05;3.30;;;;;;;;;;5041794;28;20207;-64
2022/07/09 06:57:25;;;;;;;5.78;3.15;;;;;;;;;;5038928;28;20207;-63
2022/07/09 06:59:51;;;;;;;6.40;2.95;;;;;;;;;;5040217;28;20302;-63
2022/07/09 07:02:16;;;;;;;5.82;2.90;;;;;;;;;;5040550;28;20204;-64
2022/07/09 07:04:41;;;;;;;4.68;2.72;;;;;;;;;;5038322;28;20228;-64
2022/07/09 07:07:07;;;;;;;5.55;2.50;;;;;;;;;;5040136;28;20203;-64
2022/07/09 07:09:32;;;;;;;6.00;3.22;;;;;;;;;;5040963;28;20758;-64
2022/07/09 07:11:57;;;;;;;7.32;3.10;;;;;;;;;;5038982;28;20208;-63
2022/07/09 07:14:23;;;;;;;5.65;2.50;;;;;;;;;;5044666;28;20223;-64
2022/07/09 07:16:48;;;;;;;4.85;2.33;;;;;;;;;;5032873;28;20220;-64
2022/07/09 07:19:13;;;;;;;5.38;2.22;;;;;;;;;;5049495;28;20690;-63
2022/07/09 07:21:39;;;;;;;7.07;2.45;;;;;;;;;;5049948;28;20204;-64
2022/07/09 07:24:04;;;;;;;4.57;1.92;;;;;;;;;;5050219;28;20590;-64
2022/07/09 07:26:30;;;;;;;3.65;1.75;;;;;;;;;;5050347;28;20207;-64
2022/07/09 07:28:55;;;;;;;3.70;1.85;;;;;;;;;;5050560;28;20635;-64
2022/07/09 07:31:22;;;;;;;4.50;1.58;;;;;;;;;;5050090;28;20288;-64
2022/07/09 07:33:48;;;;;;;3.63;1.50;;;;;;;;;;5049723;28;20345;-64
2022/07/09 07:36:13;;;;;;;2.83;1.38;;;;;;;;;;5049279;28;20476;-64
2022/07/09 07:38:38;;;;;;;3.13;1.60;;;;;;;;;;5050261;28;20227;-64
2022/07/09 07:41:04;;;;;;;3.33;1.40;;;;;;;;;;5049819;28;20712;-64
2022/07/09 07:43:29;;;;;;;3.22;1.42;;;;;;;;;;5050277;28;20667;-64
2022/07/09 07:45:54;;;;;;;2.60;1.20;;;;;;;;;;5050124;28;20712;-64
2022/07/09 07:48:20;;;;;;;2.72;1.48;;;;;;;;;;5029586;28;20576;-63
2022/07/09 07:50:45;;;;;;;1.88;1.25;;;;;;;;;;5036578;28;20203;-64
2022/07/09 07:53:10;;;;;;;2.72;1.20;;;;;;;;;;5051757;28;20219;-64
2022/07/09 07:55:36;;;;;;;5.82;1.52;;;;;;;;;;5034163;28;20215;-64
2022/07/09 07:58:01;;;;;;;4.68;1.77;;;;;;;;;;5033921;28;20208;-64
2022/07/09 08:00:26;;;;;;;3.63;1.55;;;;;;;;;;5033793;28;20208;-64
2022/07/09 08:02:52;;;;;;;3.63;1.70;;;;;;;;;;5033642;28;20277;-64
2022/07/09 08:05:17;;;;;;;3.10;1.63;;;;;;;;;;5033527;28;20208;-64
2022/07/09 08:07:43;;;;;;;5.78;1.80;;;;;;;;;;5033311;28;20228;-64
2022/07/09 08:10:09;;;;;;;4.35;1.67;;;;;;;;;;5033603;28;20208;-65
2022/07/09 08:12:34;;;;;;;4.85;1.92;;;;;;;;;;5033960;28;20273;-64
2022/07/09 08:14:59;;;;;;;5.47;2.08;;;;;;;;;;5034935;28;20682;-65
2022/07/09 08:17:25;;;;;;;3.90;1.63;;;;;;;;;;5052927;28;20723;-62
2022/07/09 08:19:50;;;;;;;4.38;1.65;;;;;;;;;;5046507;28;20868;-65
2022/07/09 08:22:16;;;;;;;5.95;2.15;;;;;;;;;;5051186;28;20210;-63
2022/07/09 08:24:41;;;;;;;4.25;2.05;;;;;;;;;;5053524;28;20678;-63
2022/07/09 08:27:06;;;;;;;4.85;2.03;;;;;;;;;;5053273;28;20205;-63
2022/07/09 08:29:32;;;;;;;6.32;1.90;;;;;;;;;;5044962;28;20670;-63
2022/07/09 08:31:57;;;;;;;2.42;1.60;;;;;;;;;;5046339;28;20200;-65
2022/07/09 08:34:22;;;;;;;6.28;2.03;;;;;;;;;;5042847;28;20235;-65
2022/07/09 08:36:47;;;;;;;3.15;1.63;;;;;;;;;;5042478;28;20207;-63
2022/07/09 08:39:13;;;;;;;5.80;1.98;;;;;;;;;;5049753;28;20219;-63
2022/07/09 08:41:38;;;;;;;4.40;1.90;;;;;;;;;;5050245;28;20770;-62
2022/07/09 08:44:04;;;;;;;5.43;1.90;;;;;;;;;;5040862;28;20303;-62
2022/07/09 08:46:29;;;;;;;4.20;1.70;;;;;;;;;;5042997;28;20203;-62
2022/07/09 08:48:55;;;;;;;3.97;1.60;;;;;;;;;;5049638;28;20319;-61
2022/07/09 08:51:20;;;;;;;2.70;1.70;;;;;;;;;;5043390;28;20222;-62
2022/07/09 08:53:45;;;;;;;3.97;1.90;;;;;;;;;;5041044;28;20226;-63
2022/07/09 08:56:11;;;;;;;5.82;1.98;;;;;;;;;;5031709;28;20207;-64
2022/07/09 08:58:38;;;;;;;4.88;2.10;;;;;;;;;;5022789;28;20207;-64
2022/07/09 09:01:04;;;;;;;5.38;2.30;;;;;;;;;;5012542;28;20216;-64
2022/07/09 09:03:29;;;;;;;5.75;2.30;;;;;;;;;;5012540;28;20217;-64
2022/07/09 09:06:02;;;;;;;3.72;1.98;;;;;;;;;;5012632;28;20690;-64
2022/07/09 09:08:27;;;;;;;6.63;2.30;;;;;;;;;;5032587;28;20215;-63
2022/07/09 09:10:52;;;;;;;6.00;2.55;;;;;;;;;;5032205;28;20307;-64
2022/07/09 09:13:18;;;;;;;3.80;2.05;;;;;;;;;;5032212;28;20251;-64
2022/07/09 09:15:43;;;;;;;5.63;2.40;;;;;;;;;;5047505;28;20222;-64
2022/07/09 09:18:09;;;;;;;6.57;2.95;;;;;;;;;;5051288;28;20298;-64
2022/07/09 09:20:34;;;;;;;7.35;3.58;;;;;;;;;;5051999;28;20215;-64
2022/07/09 09:23:01;;;;;;;7.93;4.80;;;;;;;;;;5052215;28;20210;-64
2022/07/09 09:25:27;;;;;;;7.85;5.07;;;;;;;;;;5052186;28;20663;-63
2022/07/09 09:27:53;;;;;;;6.97;4.72;;;;;;;;;;5052401;28;20264;-62
2022/07/09 09:30:19;;;;;;;7.88;5.63;;;;;;;;;;5049724;28;20199;-63
2022/07/09 09:32:44;;;;;;;8.88;6.10;;;;;;;;;;5036988;28;20242;-63
2022/07/09 09:35:10;;;;;;;9.30;6.20;;;;;;;;;;5031528;28;20369;-63
2022/07/09 09:37:35;;;;;;;8.23;6.10;;;;;;;;;;5034633;28;20889;-61
2022/07/09 09:40:08;;;;;;;9.82;6.47;;;;;;;;;;5039751;28;20622;-64
2022/07/09 09:42:33;;;;;;;8.00;6.53;;;;;;;;;;5046270;28;20213;-62
2022/07/09 09:44:58;;;;;;;9.15;6.13;;;;;;;;;;5051413;28;20215;-63
2022/07/09 09:47:24;;;;;;;10.00;6.88;;;;;;;;;;5042250;28;20222;-63
2022/07/09 09:49:50;;;;;;;9.82;6.25;;;;;;;;;;5033919;28;20211;-62
2022/07/09 09:52:17;;;;;;;7.38;5.57;;;;;;;;;;5040185;28;20270;-61
2022/07/09 09:54:45;;;;;;;9.25;6.25;;;;;;;;;;5039802;28;20216;-62
2022/07/09 09:57:10;;;;;;;10.00;5.70;;;;;;;;;;5032128;28;20314;-62
2022/07/09 09:59:36;;;;;;;6.80;5.40;;;;;;;;;;5032041;28;20310;-62
2022/07/09 10:02:02;;;;;;;8.63;5.65;;;;;;;;;;5030588;28;20318;-63
2022/07/09 10:04:28;;;;;;;11.02;5.47;;;;;;;;;;5013873;28;20307;-62
2022/07/09 10:06:53;;;;;;;7.65;4.40;;;;;;;;;;5013757;28;20265;-62
2022/07/09 10:09:19;;;;;;;6.40;4.75;;;;;;;;;;5031039;28;20215;-62
2022/07/09 10:11:45;;;;;;;7.13;3.70;;;;;;;;;;5031867;28;20215;-62
2022/07/09 10:14:28;;;;;;;10.27;3.90;;;;;;;;;;5030154;28;20228;-63
2022/07/09 10:16:53;;;;;;;5.28;3.20;;;;;;;;;;5031333;28;20211;-62
2022/07/09 10:19:26;;;;;;;4.97;3.40;;;;;;;;;;5031141;28;20623;-62
2022/07/09 10:21:53;;;;;;;7.45;2.88;;;;;;;;;;5031140;28;20291;-62
2022/07/09 10:24:25;;;;;;;3.83;2.80;;;;;;;;;;5030911;28;20224;-62
2022/07/09 10:26:51;;;;;;;5.80;3.20;;;;;;;;;;5031552;28;20290;-62
2022/07/09 10:29:23;;;;;;;5.95;2.95;;;;;;;;;;5030250;28;20311;-63
2022/07/09 10:31:48;;;;;;;6.72;2.38;;;;;;;;;;5031179;28;20736;-62
2022/07/09 10:34:23;;;;;;;2.97;1.73;;;;;;;;;;5031289;28;20231;-62
2022/07/09 10:36:58;;;;;;;3.25;1.88;;;;;;;;;;5030715;28;20291;-62
2022/07/09 10:39:23;;;;;;;3.42;1.45;;;;;;;;;;5030628;28;20242;-62
2022/07/09 10:41:58;;;;;;;3.28;1.60;;;;;;;;;;5030787;28;20257;-62
2022/07/09 10:44:25;;;;;;;4.20;1.25;;;;;;;;;;5030684;28;20600;-62
2022/07/09 10:46:57;;;;;;;4.07;1.30;;;;;;;;;;5031254;28;20612;-62
2022/07/09 10:49:22;;;;;;;5.80;1.20;;;;;;;;;;5030317;28;20273;-62
2022/07/09 10:51:47;;;;;;;2.55;1.23;;;;;;;;;;5030550;28;20667;-62
2022/07/09 10:54:14;;;;;;;4.65;1.55;;;;;;;;;;5032146;28;20228;-62
2022/07/09 10:56:40;;;;;;;2.97;0.93;;;;;;;;;;5050424;28;20207;-62
2022/07/09 10:59:05;;;;;;;2.22;1.10;;;;;;;;;;5050638;28;20234;-63
2022/07/09 11:01:30;;;;;;;1.92;0.90;;;;;;;;;;5033219;28;20230;-62
2022/07/09 11:03:56;;;;;;;2.03;1.00;;;;;;;;;;5050522;28;20231;-61
2022/07/09 11:06:21;;;;;;;2.22;1.10;;;;;;;;;;5050200;28;20206;-62
2022/07/09 11:08:46;;;;;;;4.95;1.10;;;;;;;;;;5050894;28;20283;-62
2022/07/09 11:11:12;;;;;;;2.05;0.95;;;;;;;;;;5049642;28;20215;-62
2022/07/09 11:13:37;;;;;;;2.85;1.55;;;;;;;;;;5050758;28;20600;-62
2022/07/09 11:16:03;;;;;;;1.70;0.90;;;;;;;;;;5033781;28;20671;-62
2022/07/09 11:18:28;;;;;;;3.00;0.98;;;;;;;;;;5021333;28;20218;-62
2022/07/09 11:20:53;;;;;;;2.22;1.15;;;;;;;;;;5030897;28;20274;-61
2022/07/09 11:23:19;;;;;;;3.22;1.10;;;;;;;;;;5034203;28;20215;-62
2022/07/09 11:25:45;;;;;;;3.60;1.40;;;;;;;;;;5034175;28;20215;-61
2022/07/09 11:28:24;;;;;;;1.75;0.90;;;;;;;;;;5016592;28;20667;-62
2022/07/09 11:30:58;;;;;;;6.00;1.17;;;;;;;;;;5034129;28;20199;-62
2022/07/09 11:33:24;;;;;;;1.60;0.77;;;;;;;;;;5033828;28;20226;-62
2022/07/09 11:35:49;;;;;;;2.13;0.80;;;;;;;;;;5016760;28;20282;-62
2022/07/09 11:38:14;;;;;;;2.42;0.90;;;;;;;;;;5015789;28;20223;-62
2022/07/09 11:40:40;;;;;;;2.13;0.80;;;;;;;;;;5034113;28;20215;-61
2022/07/09 11:43:14;;;;;;;1.92;0.60;;;;;;;;;;5016544;28;20212;-62
2022/07/09 11:45:40;;;;;;;1.48;0.80;;;;;;;;;;5034330;28;20219;-62
2022/07/09 11:48:06;;;;;;;2.83;0.70;;;;;;;;;;5033617;28;20269;-61
2022/07/09 11:50:31;;;;;;;2.30;0.68;;;;;;;;;;5034104;28;20291;-62
2022/07/09 11:52:57;;;;;;;3.22;0.73;;;;;;;;;;5033384;28;20295;-61
2022/07/09 11:55:27;;;;;;;3.70;0.80;;;;;;;;;;5033597;28;20235;-62
2022/07/09 11:57:54;;;;;;;4.00;0.90;;;;;;;;;;5016839;28;20563;-62
2022/07/09 12:00:21;;;;;;;3.88;0.88;;;;;;;;;;5034001;28;20217;-61
2022/07/09 12:02:46;;;;;;;1.95;0.70;;;;;;;;;;5033502;28;20266;-62
2022/07/09 12:05:11;;;;;;;2.75;0.70;;;;;;;;;;5033517;28;20643;-62
2022/07/09 12:07:37;;;;;;;2.72;0.80;;;;;;;;;;5033376;28;20666;-61
2022/07/09 12:10:04;;;;;;;2.63;0.52;;;;;;;;;;5033366;28;20221;-62
2022/07/09 12:12:30;;;;;;;3.28;0.80;;;;;;;;;;5033921;28;20253;-62
2022/07/09 12:14:55;;;;;;;2.63;0.80;;;;;;;;;;5033699;28;20219;-62
2022/07/09 12:17:22;;;;;;;2.53;0.70;;;;;;;;;;5033311;28;20220;-61
2022/07/09 12:19:48;;;;;;;1.55;0.50;;;;;;;;;;5033559;28;20237;-62
2022/07/09 12:22:13;;;;;;;1.35;0.60;;;;;;;;;;5032238;28;20225;-62
2022/07/09 12:24:39;;;;;;;1.70;0.50;;;;;;;;;;5033536;28;20677;-61
2022/07/09 12:27:04;;;;;;;2.42;0.70;;;;;;;;;;5032799;28;20293;-62
2022/07/09 12:29:29;;;;;;;2.88;0.57;;;;;;;;;;5033708;28;20294;-62
2022/07/09 12:31:55;;;;;;;2.13;0.88;;;;;;;;;;5032001;28;20212;-61
2022/07/09 12:34:20;;;;;;;2.40;0.80;;;;;;;;;;5005400;28;20548;-62
2022/07/09 12:36:45;;;;;;;3.15;0.90;;;;;;;;;;5004168;28;20223;-61
2022/07/09 12:39:11;;;;;;;2.83;1.00;;;;;;;;;;4999486;28;20228;-62
2022/07/09 12:41:36;;;;;;;3.28;0.93;;;;;;;;;;5015013;28;20289;-61
2022/07/09 12:44:01;;;;;;;3.13;0.73;;;;;;;;;;5026567;28;20276;-62
2022/07/09 12:46:26;;;;;;;3.05;0.80;;;;;;;;;;5026773;28;20214;-62
2022/07/09 12:48:52;;;;;;;2.72;0.82;;;;;;;;;;5026179;28;20357;-62
2022/07/09 12:51:17;;;;;;;3.22;0.90;;;;;;;;;;5008836;28;20208;-62
2022/07/09 12:53:42;;;;;;;3.42;0.90;;;;;;;;;;5007488;28;20228;-62
2022/07/09 12:56:08;;;;;;;4.63;0.88;;;;;;;;;;5003081;28;20274;-61
2022/07/09 12:58:33;;;;;;;3.08;0.70;;;;;;;;;;5004346;28;20268;-61
2022/07/09 13:00:58;;;;;;;3.92;0.88;;;;;;;;;;5003870;28;20266;-61
2022/07/09 13:03:24;;;;;;;2.75;0.70;;;;;;;;;;5002061;28;20224;-62
2022/07/09 13:05:49;;;;;;;1.92;0.68;;;;;;;;;;5006830;28;20217;-61
2022/07/09 13:08:14;;;;;;;1.77;0.75;;;;;;;;;;5023185;28;20216;-62
2022/07/09 13:10:39;;;;;;;3.90;0.60;;;;;;;;;;5026235;28;20235;-62
2022/07/09 13:13:05;;;;;;;2.30;0.80;;;;;;;;;;5026074;28;20285;-62
2022/07/09 13:15:30;;;;;;;3.47;0.80;;;;;;;;;;5014033;28;20216;-62
2022/07/09 13:17:56;;;;;;;5.97;0.75;;;;;;;;;;5004543;28;20586;-61
2022/07/09 13:20:21;;;;;;;3.28;0.80;;;;;;;;;;5017803;28;20654;-61
2022/07/09 13:22:46;;;;;;;4.13;0.80;;;;;;;;;;5014362;28;20292;-61
2022/07/09 13:25:12;;;;;;;4.93;0.80;;;;;;;;;;5000629;28;20220;-61
2022/07/09 13:27:37;;;;;;;3.20;1.00;;;;;;;;;;5007126;28;20339;-61
2022/07/09 13:30:03;;;;;;;2.83;0.80;;;;;;;;;;5007199;28;20212;-62
2022/07/09 13:32:28;;;;;;;3.10;0.70;;;;;;;;;;5006272;28;20223;-61
2022/07/09 13:34:53;;;;;;;2.08;0.80;;;;;;;;;;5007106;28;20292;-61
2022/07/09 13:37:19;;;;;;;4.30;0.68;;;;;;;;;;5007158;28;20282;-62
2022/07/09 13:39:44;;;;;;;4.47;0.70;;;;;;;;;;5007643;28;20969;-62
2022/07/09 13:42:10;;;;;;;4.10;0.70;;;;;;;;;;5015261;28;20722;-62
2022/07/09 13:44:35;;;;;;;6.07;0.73;;;;;;;;;;5018265;28;20802;-62
2022/07/09 13:47:00;;;;;;;3.60;0.60;;;;;;;;;;5000675;28;20287;-64
2022/07/09 13:49:26;;;;;;;2.78;0.60;;;;;;;;;;5005462;28;20573;-62
2022/07/09 13:51:51;;;;;;;1.80;0.52;;;;;;;;;;5008277;28;20752;-62
2022/07/09 13:54:16;;;;;;;2.65;0.63;;;;;;;;;;5006734;28;20229;-61
2022/07/09 13:56:42;;;;;;;2.72;0.68;;;;;;;;;;5007996;28;20674;-62
2022/07/09 13:59:07;;;;;;;4.05;0.70;;;;;;;;;;5006723;28;20227;-62
2022/07/09 14:01:33;;;;;;;1.75;0.52;;;;;;;;;;5007040;28;20212;-62
2022/07/09 14:03:58;;;;;;;3.25;0.70;;;;;;;;;;5003022;28;20594;-62
2022/07/09 14:06:24;;;;;;;2.88;0.70;;;;;;;;;;5020588;28;20221;-62
2022/07/09 14:08:49;;;;;;;2.03;0.63;;;;;;;;;;5022803;28;20612;-62
2022/07/09 14:11:15;;;;;;;3.97;0.70;;;;;;;;;;5022460;28;20220;-62
2022/07/09 14:13:42;;;;;;;2.55;0.60;;;;;;;;;;5025647;28;20224;-62
2022/07/09 14:16:08;;;;;;;3.33;0.82;;;;;;;;;;5008316;28;20641;-62
2022/07/09 14:18:33;;;;;;;3.85;0.70;;;;;;;;;;5026042;28;20241;-62
2022/07/09 14:20:58;;;;;;;3.20;0.70;;;;;;;;;;5025662;28;20318;-62
2022/07/09 14:23:24;;;;;;;2.08;0.60;;;;;;;;;;5025189;28;20589;-63
2022/07/09 14:25:49;;;;;;;2.83;0.60;;;;;;;;;;5023674;28;20577;-61